Terminal Aerodrome Forecast
Issued by NWS

Home | Current Version | Previous Version | Text Only | Print | Product List | Glossary On
Versions: 1 2 3 4 5 6 7 8 9 10 11 12 13 14 15 16 17
000
FTUS43 KLSX 250520
TAFCPS
TAF
KCPS 250520Z 2506/2606 VRB03KT P6SM FEW200
      TEMPO 2508/2512 5SM BR
     FM251500 20006KT P6SM SCT050
     FM252000 23007KT P6SM VCTS BKN050CB
     FM260000 28007KT 3SM -SHRA VCTS BKN050CB
     FM260300 31008KT P6SM OVC050=

USA.gov is the U.S. government's official web portal to all federal, state and local government web resources and services.